< Typhoon 200902 2009 Season Typhoon 200904 >
Typhoon 200903 (LINFA)
General InformationTrack Information on Google MapsDetailed Wind InformationAccess Analytics MapList of All Images || NewsDisaster Info.WeblogTrackbackTyphoon FrontTyphoon ImaginationResourceGoogle EarthGE AnimationAtom FeedGeoJSON
Detalied Best Track (Time Zone = UTC)
Year Month Day Hour Lat. Long. Pressure (hPa) Wind (kt) Class Image Chart
2009 6 17 06 17.4 116.7 1004 0 2 Image Chart
2009 6 17 12 17.6 116.6 1004 0 2 Image Chart
2009 6 17 18 17.7 116.3 1002 0 2 Image Chart
2009 6 18 00 17.6 116.1 1000 35 3 Image Chart
2009 6 18 06 17.3 116.3 998 35 3 Image Chart
2009 6 18 12 17.2 116.5 994 35 3 Image Chart
2009 6 18 18 17.4 116.9 994 35 3 Image Chart
2009 6 19 00 17.6 117.2 992 40 3 Image Chart
2009 6 19 06 18.4 117.3 990 45 3 Image Chart
2009 6 19 12 19.3 117.1 985 50 4 Image Chart
2009 6 19 18 19.8 116.9 985 50 4 Image Chart
2009 6 20 00 20.1 117.1 980 55 4 Image Chart
2009 6 20 06 20.5 117.3 975 60 4 Image Chart
2009 6 20 12 21.2 117.8 975 60 4 Image Chart
2009 6 20 18 21.9 118.1 975 60 4 Image Chart
2009 6 21 00 22.7 118.3 975 60 4 Image Chart
2009 6 21 06 23.4 118.3 980 55 4 Image Chart
2009 6 21 12 24.1 118.3 980 50 4 Image Chart
2009 6 21 18 25.1 119.0 992 40 3 Image Chart
2009 6 22 00 26.0 119.7 996 35 3 Image Chart
2009 6 22 06 27.4 120.7 998 0 2 Image Chart
2009 6 22 12 28.7 121.8 1000 0 2 Image Chart
2009 6 22 18 29.2 122.7 1000 0 2 Image Chart
2009 6 23 00 29.7 124.2 1000 0 2 Image Chart
2009 6 23 06 30.0 125.4 1000 0 6 Image Chart
2009 6 23 12 31.7 129.1 998 0 6 Image Chart
2009 6 23 18 33.2 133.4 998 0 6 Image Chart
2009 6 24 00 33.9 137.2 998 0 6 Image Chart
2009 6 24 06 35.7 142.0 1000 0 6 Image Chart
2009 6 24 12 37.5 146.0 1000 0 6 Image Chart
2009 6 24 18 39.0 149.1 1002 0 6 Image Chart
2009 6 25 00 40.1 152.3 1002 0 6 Image Chart
2009 6 25 06 41.1 155.8 1002 0 6 Image Chart
2009 6 25 12 41.9 157.6 1002 0 6 Image Chart
2009 6 25 18 42.6 159.6 1002 0 6 Image Chart
2009 6 26 00 42.9 160.6 1004 0 6 Image Chart
2009 6 26 06 43.5 161.8 1004 0 6 Image Chart
2009 6 26 12 43.9 163.1 1004 0 6 Image Chart
2009 6 26 18 44.6 164.0 1006 0 6 Image Chart
2009 6 27 00 45.6 165.4 1006 0 6 Image Chart
2009 6 27 06 46.8 166.6 1004 0 6 Image Chart
2009 6 27 12 47.9 168.0 1004 0 6 Image Chart
2009 6 27 18 49.3 168.8 1004 0 6 Image Chart
2009 6 28 00 50.6 169.9 1004 0 6 Image Chart
2009 6 28 06 52.1 171.2 1004 0 6 Image Chart
2009 6 28 12 53.8 172.7 1004 0 6 Image Chart
2009 6 28 18 55.3 173.4 1004 0 6 Image Chart
2009 6 29 00 56.4 173.8 1006 0 6 Image Chart
2009 6 29 06 57.4 174.3 1006 0 6 Image Chart
2009 6 29 12 58.1 174.4 1008 0 6 Image Chart
2009 6 29 18 58.5 173.5 1008 0 6 Image Chart
2009 6 30 00 58.4 172.7 1008 0 6 Image Chart
2009 6 30 06 58.2 172.0 1006 0 6 Image Chart
2009 6 30 12 57.8 171.9 1006 0 6 Image Chart
Japan Meteorological Agency Best Track Data | Correction Date : 2009-08-12
< Typhoon 200902 2009 Season Typhoon 200904 >

Help